Time;durP1;ratioP1;P1;durP2;ratioP2;P2;SDS_P1;SDS_P2;PMS_P1;PMS_P2;Temp;Humidity;BMP_temperature;BMP_pressure;BME280_temperature;BME280_humidity;BME280_pressure;Samples;Min_cycle;Max_cycle;Signal;HPM_P1;HPM_P2
2023/03/06 00:00:26;;;;;;;6.03;1.73;;;4.10;73.60;;;;;;5060099;28;20095;-77
2023/03/06 00:02:51;;;;;;;5.00;1.75;;;4.20;73.70;;;;;;5076819;28;20046;-77
2023/03/06 00:05:17;;;;;;;5.70;1.63;;;4.10;73.60;;;;;;5060679;28;20052;-77
2023/03/06 00:07:43;;;;;;;4.45;1.45;;;4.10;73.60;;;;;;5077138;28;20563;-77
2023/03/06 00:10:19;;;;;;;3.72;1.50;;;4.10;73.70;;;;;;5077372;28;20115;-76
2023/03/06 00:12:45;;;;;;;5.22;1.70;;;4.20;73.90;;;;;;5099888;28;20040;-77
2023/03/06 00:15:11;;;;;;;2.65;1.08;;;4.10;73.80;;;;;;5077328;28;20098;-77
2023/03/06 00:17:37;;;;;;;4.45;1.30;;;4.10;73.90;;;;;;5077013;28;20044;-77
2023/03/06 00:20:04;;;;;;;2.13;1.25;;;4.10;74.00;;;;;;5077152;28;20043;-77
2023/03/06 00:22:30;;;;;;;3.40;1.20;;;4.10;74.00;;;;;;5090510;28;20033;-77
2023/03/06 00:24:56;;;;;;;3.13;1.35;;;4.10;74.00;;;;;;5106170;28;20043;-77
2023/03/06 00:27:25;;;;;;;1.88;1.05;;;4.10;74.10;;;;;;5076475;28;20036;-77
2023/03/06 00:30:00;;;;;;;4.68;1.60;;;4.10;74.20;;;;;;5076580;28;20032;-77
2023/03/06 00:32:26;;;;;;;2.75;1.48;;;4.10;74.20;;;;;;5076736;28;20379;-77
2023/03/06 00:34:53;;;;;;;5.38;1.52;;;4.10;74.20;;;;;;5062622;28;20036;-77
2023/03/06 00:37:21;;;;;;;3.63;1.33;;;4.10;74.20;;;;;;5085523;28;20029;-77
2023/03/06 00:39:48;;;;;;;3.53;1.60;;;4.10;74.20;;;;;;5087255;28;20506;-77
2023/03/06 00:42:18;;;;;;;3.40;1.35;;;4.10;74.20;;;;;;5077093;28;20040;-77
2023/03/06 00:44:44;;;;;;;2.80;1.40;;;4.10;74.20;;;;;;5083738;28;20032;-77
2023/03/06 00:47:11;;;;;;;7.35;2.15;;;4.20;74.30;;;;;;5076612;28;20032;-77
2023/03/06 00:49:37;;;;;;;3.60;1.38;;;4.40;74.40;;;;;;5087159;28;20119;-77
2023/03/06 00:52:03;;;;;;;4.03;1.83;;;4.20;74.30;;;;;;5076362;28;20068;-77
2023/03/06 00:54:28;;;;;;;3.45;1.55;;;4.20;74.40;;;;;;5059355;28;20036;-77
2023/03/06 00:56:54;;;;;;;4.55;1.67;;;4.20;74.50;;;;;;5064865;28;20467;-77
2023/03/06 00:59:20;;;;;;;3.42;1.60;;;4.30;74.60;;;;;;5076383;28;20040;-77
2023/03/06 01:01:45;;;;;;;8.48;1.90;;;4.30;74.60;;;;;;5057835;28;20037;-77
2023/03/06 01:04:11;;;;;;;3.70;1.50;;;4.10;74.50;;;;;;5058985;28;20048;-77
2023/03/06 01:06:37;;;;;;;5.22;1.60;;;4.20;74.60;;;;;;5075804;28;20041;-77
2023/03/06 01:09:04;;;;;;;4.18;1.80;;;4.20;74.60;;;;;;5075421;28;20049;-77
2023/03/06 01:11:30;;;;;;;5.20;1.85;;;4.20;74.70;;;;;;5058049;28;20037;-77
2023/03/06 01:13:56;;;;;;;6.30;1.60;;;4.20;75.10;;;;;;5098031;28;20036;-77
2023/03/06 01:16:22;;;;;;;2.90;1.60;;;4.20;74.70;;;;;;5059218;28;20072;-77
2023/03/06 01:18:49;;;;;;;3.80;1.75;;;4.30;74.70;;;;;;5072837;28;20028;-77
2023/03/06 01:21:15;;;;;;;3.53;1.38;;;4.20;74.70;;;;;;5078206;28;20043;-77
2023/03/06 01:23:41;;;;;;;2.95;1.20;;;4.20;74.60;;;;;;5042360;28;20487;-77
2023/03/06 01:26:07;;;;;;;6.20;1.40;;;4.30;74.70;;;;;;5076482;28;20040;-77
2023/03/06 01:28:33;;;;;;;2.83;1.40;;;4.30;74.70;;;;;;5080944;28;20048;-77
2023/03/06 01:31:04;;;;;;;2.40;1.15;;;4.40;74.90;;;;;;5092106;28;20032;-77
2023/03/06 01:33:30;;;;;;;3.75;1.23;;;4.30;74.90;;;;;;5042462;28;20032;-77
2023/03/06 01:35:55;;;;;;;3.17;1.35;;;4.30;74.90;;;;;;5091755;28;20047;-77
2023/03/06 01:38:21;;;;;;;2.40;1.15;;;4.50;75.00;;;;;;5083561;28;20036;-77
2023/03/06 01:40:47;;;;;;;3.35;1.00;;;4.30;75.00;;;;;;5042479;28;20040;-77
2023/03/06 01:43:28;;;;;;;8.27;1.55;;;4.30;75.00;;;;;;5063108;28;20040;-77
2023/03/06 01:46:28;;;;;;;2.47;1.00;;;4.30;75.10;;;;;;5092438;28;20036;-77
2023/03/06 01:48:59;;;;;;;3.40;1.38;;;4.30;75.20;;;;;;5070490;28;20047;-77
2023/03/06 01:51:30;;;;;;;4.38;1.48;;;4.30;75.20;;;;;;5075148;28;20047;-77
2023/03/06 01:53:59;;;;;;;3.45;1.10;;;4.30;75.30;;;;;;5072743;28;20119;-78
2023/03/06 01:56:26;;;;;;;2.92;1.20;;;4.70;75.50;;;;;;5091581;28;20028;-77
2023/03/06 01:58:52;;;;;;;2.50;1.02;;;4.30;75.30;;;;;;5078529;28;20122;-77
2023/03/06 02:01:18;;;;;;;3.83;1.13;;;4.50;75.50;;;;;;5074926;28;20043;-77
2023/03/06 02:03:46;;;;;;;2.63;0.90;;;4.40;75.50;;;;;;5085986;28;20053;-77
2023/03/06 02:06:18;;;;;;;4.18;1.10;;;4.40;75.50;;;;;;5076117;28;20039;-77
2023/03/06 02:08:45;;;;;;;3.72;0.90;;;4.40;75.50;;;;;;5075928;28;20427;-77
2023/03/06 02:11:17;;;;;;;4.00;1.00;;;4.40;76.00;;;;;;5056015;28;20162;-77
2023/03/06 02:13:44;;;;;;;3.53;1.00;;;4.40;75.70;;;;;;5076482;28;20039;-77
2023/03/06 02:16:11;;;;;;;2.35;1.00;;;4.50;75.70;;;;;;5058327;28;20397;-77
2023/03/06 02:18:39;;;;;;;4.05;0.95;;;4.40;75.70;;;;;;5058233;28;20122;-77
2023/03/06 02:21:08;;;;;;;3.30;0.93;;;4.50;75.90;;;;;;5075033;28;20475;-77
2023/03/06 02:24:00;;;;;;;4.53;1.42;;;4.50;76.00;;;;;;5075449;28;20048;-77
2023/03/06 02:26:28;;;;;;;3.45;1.05;;;4.60;76.20;;;;;;5072637;28;20072;-77
2023/03/06 02:28:56;;;;;;;3.45;1.00;;;4.50;76.30;;;;;;5074531;28;20032;-77
2023/03/06 02:31:28;;;;;;;3.20;1.00;;;4.50;76.30;;;;;;5075500;28;20090;-77
2023/03/06 02:34:24;;;;;;;1.92;0.90;;;4.70;76.60;;;;;;5091201;28;20038;-77
2023/03/06 02:37:01;;;;;;;3.05;1.10;;;4.50;76.50;;;;;;5057751;28;20398;-77
2023/03/06 02:39:32;;;;;;;2.60;0.98;;;4.50;76.60;;;;;;5074613;28;20024;-76
2023/03/06 02:41:57;;;;;;;5.18;1.10;;;4.50;76.70;;;;;;5083682;28;20039;-77
2023/03/06 02:44:25;;;;;;;4.60;1.05;;;4.50;76.70;;;;;;5057584;28;20033;-77
2023/03/06 02:46:51;;;;;;;5.63;1.40;;;4.60;76.90;;;;;;5074598;28;20412;-76
2023/03/06 02:49:17;;;;;;;5.03;1.33;;;4.60;77.00;;;;;;5041396;28;20131;-77
2023/03/06 02:51:43;;;;;;;2.70;0.90;;;4.60;77.10;;;;;;5091487;28;20043;-77
2023/03/06 02:54:09;;;;;;;2.65;0.73;;;4.70;77.20;;;;;;5074881;28;20437;-77
2023/03/06 02:56:35;;;;;;;3.03;0.80;;;4.60;77.30;;;;;;5074630;28;20403;-77
2023/03/06 02:59:01;;;;;;;2.22;0.98;;;4.60;77.30;;;;;;5082395;28;20035;-77
2023/03/06 03:01:27;;;;;;;2.78;1.00;;;4.70;77.40;;;;;;5080094;28;20040;-77
2023/03/06 03:03:52;;;;;;;4.25;1.05;;;4.60;77.50;;;;;;5074325;28;20044;-77
2023/03/06 03:06:18;;;;;;;3.10;1.00;;;4.60;77.60;;;;;;5057290;28;20040;-77
2023/03/06 03:08:44;;;;;;;3.78;1.02;;;4.60;77.70;;;;;;5041339;28;20040;-77
2023/03/06 03:11:11;;;;;;;1.75;0.90;;;4.60;77.90;;;;;;5057587;28;20036;-77
2023/03/06 03:13:36;;;;;;;3.47;0.95;;;4.50;78.10;;;;;;5090977;28;20077;-77
2023/03/06 03:16:05;;;;;;;1.40;0.63;;;4.50;78.20;;;;;;5091240;28;20035;-77
2023/03/06 03:18:31;;;;;;;0.52;0.52;;;4.50;78.40;;;;;;5090953;28;20071;-77
2023/03/06 03:20:57;;;;;;;1.23;0.68;;;4.50;78.60;;;;;;5057114;28;20040;-77
2023/03/06 03:23:23;;;;;;;0.80;0.50;;;4.50;78.50;;;;;;5057152;28;20040;-77
2023/03/06 03:25:49;;;;;;;1.02;0.60;;;4.50;78.50;;;;;;5057568;28;20365;-77
2023/03/06 03:28:16;;;;;;;1.52;0.60;;;4.50;78.50;;;;;;5074185;28;20081;-77
2023/03/06 03:30:42;;;;;;;1.67;0.68;;;4.50;78.50;;;;;;5090449;28;20036;-76
2023/03/06 03:33:08;;;;;;;1.77;0.63;;;4.50;78.50;;;;;;5076092;28;20445;-76
2023/03/06 03:35:34;;;;;;;2.75;0.93;;;4.50;78.50;;;;;;5075134;28;20063;-77
2023/03/06 03:38:00;;;;;;;1.27;0.60;;;4.50;78.40;;;;;;5074066;28;20075;-77
2023/03/06 03:40:25;;;;;;;1.98;0.90;;;4.60;78.40;;;;;;5090972;28;20068;-76
2023/03/06 03:42:51;;;;;;;1.40;0.57;;;4.60;78.30;;;;;;5073795;28;20075;-77
2023/03/06 03:45:17;;;;;;;2.45;0.60;;;4.80;78.30;;;;;;5054271;28;20040;-76
2023/03/06 03:47:43;;;;;;;0.93;0.50;;;4.60;78.10;;;;;;5073809;28;20047;-77
2023/03/06 03:50:10;;;;;;;1.85;0.60;;;4.60;77.90;;;;;;5073319;28;20075;-77
2023/03/06 03:52:36;;;;;;;1.00;0.40;;;4.60;77.90;;;;;;5073620;28;20040;-77
2023/03/06 03:55:03;;;;;;;2.85;0.65;;;4.60;77.80;;;;;;5056692;28;20402;-76
2023/03/06 03:57:29;;;;;;;2.22;0.60;;;4.60;77.80;;;;;;5083989;28;20039;-76
2023/03/06 03:59:55;;;;;;;1.45;0.50;;;4.50;77.70;;;;;;5077309;28;20361;-77
2023/03/06 04:02:20;;;;;;;2.63;0.73;;;4.60;77.70;;;;;;5077256;28;20036;-77
2023/03/06 04:04:47;;;;;;;1.02;0.77;;;4.60;77.70;;;;;;5094094;28;20059;-77
2023/03/06 04:07:12;;;;;;;2.20;0.57;;;4.70;77.80;;;;;;5076652;28;20111;-77
2023/03/06 04:09:38;;;;;;;1.55;0.40;;;4.70;77.80;;;;;;5083310;28;20119;-77
2023/03/06 04:12:04;;;;;;;2.22;0.70;;;4.90;77.90;;;;;;5041925;28;20445;-77
2023/03/06 04:14:30;;;;;;;1.42;0.50;;;4.60;77.70;;;;;;5060669;28;20032;-77
2023/03/06 04:16:56;;;;;;;1.27;0.40;;;4.60;77.80;;;;;;5077365;28;20096;-76
2023/03/06 04:19:21;;;;;;;2.40;0.50;;;4.60;77.90;;;;;;5077338;28;20050;-76
2023/03/06 04:21:47;;;;;;;1.08;0.43;;;4.60;77.90;;;;;;5077748;28;20114;-76
2023/03/06 04:24:13;;;;;;;2.15;0.70;;;4.60;77.90;;;;;;5093433;28;20619;-76
2023/03/06 04:26:38;;;;;;;2.03;0.70;;;4.60;78.00;;;;;;5093307;28;20036;-76
2023/03/06 04:29:04;;;;;;;1.08;0.45;;;4.50;78.00;;;;;;5083543;28;20045;-77
2023/03/06 04:31:30;;;;;;;2.03;0.60;;;4.50;78.10;;;;;;5059979;28;20028;-76
2023/03/06 04:33:56;;;;;;;0.98;0.70;;;4.60;78.10;;;;;;5086300;28;20114;-76
2023/03/06 04:36:27;;;;;;;0.77;0.50;;;4.50;78.10;;;;;;5076546;28;20043;-76
2023/03/06 04:38:52;;;;;;;0.93;0.50;;;4.50;78.50;;;;;;5076890;28;20410;-77
2023/03/06 04:41:18;;;;;;;1.90;0.60;;;4.50;78.10;;;;;;5059384;28;20028;-76
2023/03/06 04:43:45;;;;;;;1.48;0.50;;;4.50;78.20;;;;;;5094646;28;20051;-76
2023/03/06 04:46:11;;;;;;;0.80;0.50;;;4.60;78.30;;;;;;5060283;28;20042;-76
2023/03/06 04:48:37;;;;;;;0.90;0.55;;;4.80;78.40;;;;;;5076144;28;20406;-76
2023/03/06 04:51:02;;;;;;;1.00;0.60;;;4.60;78.80;;;;;;5093079;28;20039;-76
2023/03/06 04:53:28;;;;;;;1.20;0.60;;;4.50;78.40;;;;;;5093052;28;20085;-76
2023/03/06 04:55:54;;;;;;;2.25;0.65;;;4.50;78.40;;;;;;5092923;28;20536;-77
2023/03/06 04:58:19;;;;;;;1.45;0.70;;;4.50;78.30;;;;;;5059276;28;20036;-76
2023/03/06 05:00:45;;;;;;;1.10;0.70;;;4.50;78.30;;;;;;5092836;28;20043;-76
2023/03/06 05:03:12;;;;;;;1.05;0.57;;;4.50;78.30;;;;;;5058959;28;20119;-76
2023/03/06 05:05:38;;;;;;;0.80;0.45;;;4.40;78.20;;;;;;5059188;28;20052;-76
2023/03/06 05:08:04;;;;;;;1.02;0.60;;;4.40;78.20;;;;;;5065491;28;20037;-76
2023/03/06 05:10:30;;;;;;;0.77;0.60;;;4.30;78.10;;;;;;5076391;28;20035;-76
2023/03/06 05:12:56;;;;;;;1.65;0.60;;;4.30;77.90;;;;;;5074938;28;20051;-76
2023/03/06 05:15:22;;;;;;;0.57;0.38;;;4.30;77.90;;;;;;5058980;28;20043;-76
2023/03/06 05:17:47;;;;;;;0.82;0.50;;;4.30;77.90;;;;;;5058587;28;20032;-76
2023/03/06 05:20:14;;;;;;;0.80;0.52;;;4.20;77.90;;;;;;5075800;28;20369;-76
2023/03/06 05:22:40;;;;;;;1.77;0.57;;;4.20;78.30;;;;;;5058225;28;20036;-76
2023/03/06 05:25:07;;;;;;;1.25;0.70;;;4.20;77.80;;;;;;5092187;28;21735;-76
2023/03/06 05:27:33;;;;;;;0.68;0.50;;;4.20;77.80;;;;;;5058931;28;20071;-76
2023/03/06 05:29:58;;;;;;;1.70;0.50;;;4.30;77.90;;;;;;5075451;28;20444;-76
2023/03/06 05:32:24;;;;;;;0.85;0.52;;;4.10;77.70;;;;;;5092292;28;20123;-75
2023/03/06 05:34:50;;;;;;;1.17;0.40;;;4.10;77.70;;;;;;5075565;28;20043;-76
2023/03/06 05:37:15;;;;;;;0.55;0.40;;;4.60;78.10;;;;;;5057960;28;20039;-76
2023/03/06 05:39:41;;;;;;;1.33;0.50;;;4.10;77.90;;;;;;5073302;28;20044;-76
2023/03/06 05:42:07;;;;;;;0.98;0.50;;;4.10;77.90;;;;;;5056513;28;20078;-76
2023/03/06 05:44:34;;;;;;;0.80;0.45;;;4.10;78.00;;;;;;5075039;28;20381;-76
2023/03/06 05:47:00;;;;;;;0.85;0.57;;;4.10;77.90;;;;;;5058558;28;20047;-76
2023/03/06 05:49:29;;;;;;;0.38;0.30;;;4.40;78.00;;;;;;5091716;28;20065;-76
2023/03/06 05:51:55;;;;;;;0.63;0.40;;;4.20;77.80;;;;;;5076421;28;20066;-76
2023/03/06 05:54:23;;;;;;;0.60;0.40;;;4.10;77.70;;;;;;5075110;28;20094;-76
2023/03/06 05:56:49;;;;;;;2.35;0.50;;;4.10;77.60;;;;;;5059321;28;20079;-76
2023/03/06 05:59:15;;;;;;;0.70;0.40;;;4.20;77.70;;;;;;5066230;28;20387;-76
2023/03/06 06:01:41;;;;;;;1.67;0.50;;;4.10;77.50;;;;;;5074448;28;20044;-76
2023/03/06 06:04:07;;;;;;;1.75;0.57;;;4.20;77.50;;;;;;5057665;28;20052;-76
2023/03/06 06:06:33;;;;;;;0.85;0.40;;;4.20;77.40;;;;;;5074527;28;20036;-76
2023/03/06 06:08:58;;;;;;;0.75;0.40;;;4.20;77.40;;;;;;5074821;28;20403;-76
2023/03/06 06:11:24;;;;;;;0.45;0.40;;;4.10;77.20;;;;;;5075577;28;20114;-75
2023/03/06 06:13:49;;;;;;;0.70;0.45;;;4.40;77.30;;;;;;5092318;28;20040;-75
2023/03/06 06:16:15;;;;;;;0.88;0.60;;;4.50;77.20;;;;;;5092204;28;20119;-75
2023/03/06 06:18:42;;;;;;;1.33;0.90;;;4.40;77.00;;;;;;5092241;28;20035;-75
2023/03/06 06:21:10;;;;;;;0.75;0.60;;;4.10;76.70;;;;;;5058664;28;20039;-75
2023/03/06 06:23:35;;;;;;;1.42;0.60;;;4.20;76.50;;;;;;5075790;28;20097;-75
2023/03/06 06:26:03;;;;;;;0.85;0.60;;;4.20;76.40;;;;;;5092254;28;20127;-75
2023/03/06 06:28:29;;;;;;;1.60;0.47;;;4.10;76.20;;;;;;5092523;28;20032;-75
2023/03/06 06:30:55;;;;;;;1.02;0.60;;;4.10;76.00;;;;;;5075437;28;20506;-75
2023/03/06 06:33:22;;;;;;;1.25;0.70;;;4.30;76.10;;;;;;5078988;28;20059;-75
2023/03/06 06:35:48;;;;;;;1.02;0.68;;;4.10;75.90;;;;;;5101750;28;20040;-75
2023/03/06 06:38:14;;;;;;;1.45;0.60;;;4.10;75.80;;;;;;5092138;28;20417;-75
2023/03/06 06:40:39;;;;;;;2.42;0.70;;;4.40;76.00;;;;;;5085248;28;20050;-76
2023/03/06 06:43:05;;;;;;;0.98;0.60;;;4.00;75.70;;;;;;5085044;28;20081;-76
2023/03/06 06:45:31;;;;;;;1.15;0.60;;;4.10;75.70;;;;;;5085584;28;20422;-76
2023/03/06 06:47:56;;;;;;;1.20;0.63;;;4.00;75.70;;;;;;5086179;28;20032;-76
2023/03/06 06:50:22;;;;;;;2.28;0.63;;;4.00;75.70;;;;;;5086841;28;20040;-76
2023/03/06 06:52:48;;;;;;;1.77;0.90;;;4.00;75.60;;;;;;5068415;28;20746;-76
2023/03/06 06:55:14;;;;;;;3.70;2.53;;;4.00;75.60;;;;;;5085801;28;20279;-76
2023/03/06 06:57:41;;;;;;;4.63;3.00;;;3.90;75.60;;;;;;5069189;28;20044;-76
2023/03/06 07:00:10;;;;;;;4.20;2.30;;;3.90;75.60;;;;;;5069109;28;20494;-76
2023/03/06 07:02:36;;;;;;;3.40;1.70;;;3.90;75.60;;;;;;5068380;28;20128;-76
2023/03/06 07:05:01;;;;;;;3.10;1.23;;;3.90;75.70;;;;;;5052056;28;20559;-76
2023/03/06 07:07:27;;;;;;;2.85;1.00;;;3.90;75.70;;;;;;5052305;28;20039;-76
2023/03/06 07:09:54;;;;;;;3.42;1.48;;;3.90;75.70;;;;;;5068888;28;20071;-75
2023/03/06 07:12:20;;;;;;;3.05;1.70;;;3.90;75.80;;;;;;5068864;28;20040;-76
2023/03/06 07:14:47;;;;;;;8.70;6.03;;;3.90;75.70;;;;;;5056561;28;20043;-76
2023/03/06 07:17:12;;;;;;;10.27;6.95;;;3.90;75.80;;;;;;5058486;28;20556;-76
2023/03/06 07:19:38;;;;;;;10.10;6.50;;;4.00;75.80;;;;;;5041330;28;20040;-76
2023/03/06 07:22:04;;;;;;;7.15;4.82;;;3.80;75.80;;;;;;5074580;28;20044;-76
2023/03/06 07:24:30;;;;;;;3.90;2.97;;;3.80;75.90;;;;;;5074689;28;20077;-75
2023/03/06 07:26:55;;;;;;;10.63;5.78;;;3.80;75.90;;;;;;5057484;28;20043;-76
2023/03/06 07:29:21;;;;;;;7.22;4.55;;;3.80;76.10;;;;;;5074538;28;20094;-74
2023/03/06 07:31:47;;;;;;;5.53;3.47;;;3.80;76.20;;;;;;5054789;28;20044;-76
2023/03/06 07:34:13;;;;;;;6.43;3.70;;;3.80;76.50;;;;;;5052101;28;20094;-77
2023/03/06 07:36:40;;;;;;;4.15;2.58;;;3.80;76.70;;;;;;5058636;28;20040;-76
2023/03/06 07:39:07;;;;;;;4.05;2.50;;;3.90;76.90;;;;;;5058372;28;20155;-77
2023/03/06 07:41:32;;;;;;;4.00;2.08;;;3.80;76.90;;;;;;5074945;28;20040;-77
2023/03/06 07:43:58;;;;;;;3.97;2.28;;;3.80;77.00;;;;;;5093735;28;20052;-77
2023/03/06 07:46:24;;;;;;;3.67;1.88;;;3.90;77.20;;;;;;5095252;28;20044;-77
2023/03/06 07:48:50;;;;;;;2.72;1.60;;;3.90;77.20;;;;;;5095275;28;20046;-76
2023/03/06 07:51:19;;;;;;;2.80;1.88;;;4.20;77.60;;;;;;5094750;28;20048;-77
2023/03/06 07:53:45;;;;;;;3.22;2.00;;;3.90;77.70;;;;;;5077952;28;20054;-77
2023/03/06 07:56:11;;;;;;;2.80;1.80;;;4.00;78.00;;;;;;5077865;28;20044;-77
2023/03/06 07:58:40;;;;;;;2.72;1.70;;;4.10;78.60;;;;;;5095286;28;20429;-77
2023/03/06 08:01:09;;;;;;;2.95;1.83;;;4.10;78.40;;;;;;5094571;28;20078;-76
2023/03/06 08:03:36;;;;;;;3.70;1.92;;;4.20;78.40;;;;;;5077739;28;20055;-77
2023/03/06 08:06:07;;;;;;;3.15;2.08;;;4.30;78.30;;;;;;5077847;28;20127;-77
2023/03/06 08:08:34;;;;;;;2.63;1.60;;;4.40;78.30;;;;;;5094841;28;20036;-77
2023/03/06 08:11:00;;;;;;;2.40;1.50;;;4.50;78.30;;;;;;5077721;28;20036;-77
2023/03/06 08:13:25;;;;;;;3.08;1.40;;;4.60;78.20;;;;;;5060915;28;20081;-77
2023/03/06 08:15:51;;;;;;;1.83;1.20;;;5.20;78.50;;;;;;5060805;28;20044;-77
2023/03/06 08:18:17;;;;;;;1.80;1.00;;;4.80;78.00;;;;;;5077579;28;20074;-77
2023/03/06 08:20:42;;;;;;;2.50;1.20;;;5.00;77.90;;;;;;5077580;28;20446;-77
2023/03/06 08:23:08;;;;;;;6.72;3.17;;;5.10;77.60;;;;;;5044301;28;20083;-77
2023/03/06 08:25:34;;;;;;;4.32;2.13;;;5.30;77.60;;;;;;5057362;28;20154;-77
2023/03/06 08:28:00;;;;;;;3.42;2.00;;;5.50;77.70;;;;;;5057372;28;20051;-77
2023/03/06 08:30:25;;;;;;;2.72;1.55;;;5.70;76.70;;;;;;5057426;28;20090;-77
2023/03/06 08:32:51;;;;;;;2.10;1.20;;;6.00;76.50;;;;;;5074000;28;20040;-77
2023/03/06 08:35:17;;;;;;;2.20;1.10;;;6.30;76.20;;;;;;5057508;28;20040;-77
2023/03/06 08:37:43;;;;;;;3.05;1.08;;;6.60;75.80;;;;;;5073897;28;20040;-77
2023/03/06 08:40:12;;;;;;;1.42;0.70;;;7.00;74.80;;;;;;5062941;28;20040;-77
2023/03/06 08:42:37;;;;;;;2.58;0.90;;;7.30;74.20;;;;;;5077040;28;20070;-77
2023/03/06 08:45:04;;;;;;;2.72;0.70;;;7.70;73.20;;;;;;5077494;28;20036;-77
2023/03/06 08:47:30;;;;;;;2.63;0.70;;;8.00;71.40;;;;;;5077215;28;20127;-77
2023/03/06 08:49:57;;;;;;;1.60;0.60;;;8.30;70.00;;;;;;5060440;28;20039;-77
2023/03/06 08:52:23;;;;;;;0.95;0.50;;;8.50;68.70;;;;;;5089422;28;20032;-77
2023/03/06 08:54:48;;;;;;;2.00;0.50;;;8.70;67.40;;;;;;5056799;28;20048;-77
2023/03/06 08:57:14;;;;;;;2.10;0.70;;;8.80;66.20;;;;;;5073275;28;20385;-77
2023/03/06 08:59:41;;;;;;;2.63;1.23;;;8.90;65.30;;;;;;5073348;28;20043;-77
2023/03/06 09:02:10;;;;;;;1.33;0.50;;;9.10;65.60;;;;;;5073460;28;20411;-77
2023/03/06 09:04:36;;;;;;;1.95;0.60;;;9.30;66.00;;;;;;5072784;28;20053;-77
2023/03/06 09:07:02;;;;;;;1.58;0.52;;;9.50;64.80;;;;;;5073720;28;20398;-77
2023/03/06 09:09:27;;;;;;;1.83;0.52;;;9.70;63.70;;;;;;5056587;28;20690;-77
2023/03/06 09:11:53;;;;;;;2.97;1.10;;;9.80;63.00;;;;;;5073143;28;20063;-77
2023/03/06 09:14:19;;;;;;;2.70;0.60;;;9.90;62.60;;;;;;5056652;28;20058;-77
2023/03/06 09:16:45;;;;;;;3.15;1.00;;;10.00;62.80;;;;;;5072739;28;20475;-77
2023/03/06 09:19:10;;;;;;;3.05;1.00;;;10.10;62.90;;;;;;5089722;28;20047;-77
2023/03/06 09:21:36;;;;;;;3.85;0.60;;;10.30;61.20;;;;;;5093011;28;20036;-77
2023/03/06 09:24:02;;;;;;;2.38;0.68;;;10.40;60.60;;;;;;5093031;28;20033;-77
2023/03/06 09:26:28;;;;;;;2.78;0.90;;;10.60;60.90;;;;;;5059886;28;20372;-77
2023/03/06 09:28:54;;;;;;;1.40;0.60;;;10.70;60.80;;;;;;5059482;28;20046;-77
2023/03/06 09:31:19;;;;;;;1.83;0.50;;;10.80;60.50;;;;;;5042700;28;20537;-77
2023/03/06 09:33:46;;;;;;;2.90;1.23;;;11.00;60.50;;;;;;5076020;28;20040;-77
2023/03/06 09:36:18;;;;;;;1.75;0.60;;;11.20;59.60;;;;;;5076190;28;20443;-77
2023/03/06 09:38:46;;;;;;;2.90;1.00;;;11.30;58.80;;;;;;5093266;28;20043;-77
2023/03/06 09:41:29;;;;;;;1.75;0.60;;;11.40;58.60;;;;;;5059914;28;20040;-77
2023/03/06 09:44:17;;;;;;;2.67;0.80;;;11.50;57.80;;;;;;5092707;28;20087;-77
2023/03/06 09:47:14;;;;;;;2.00;0.60;;;11.50;57.60;;;;;;5075757;28;20050;-77
2023/03/06 09:50:03;;;;;;;2.30;0.75;;;11.50;56.10;;;;;;5075675;28;20043;-77
2023/03/06 09:52:29;;;;;;;1.90;0.60;;;11.50;55.80;;;;;;5092348;28;20047;-77
2023/03/06 09:54:59;;;;;;;3.83;0.80;;;11.60;56.80;;;;;;5075362;28;20044;-77
2023/03/06 09:57:31;;;;;;;1.35;0.68;;;11.60;56.70;;;;;;5075223;28;20508;-76
2023/03/06 10:00:14;;;;;;;2.17;0.50;;;11.70;56.60;;;;;;5075756;28;20387;-76
2023/03/06 10:02:55;;;;;;;2.03;0.80;;;11.80;56.40;;;;;;5092655;28;20044;-76
2023/03/06 10:05:31;;;;;;;0.95;0.55;;;11.80;55.90;;;;;;5075343;28;20395;-75
2023/03/06 10:08:00;;;;;;;1.13;0.57;;;11.80;55.60;;;;;;5075152;28;20032;-76
2023/03/06 10:10:41;;;;;;;1.95;0.60;;;11.80;55.90;;;;;;5075340;28;20043;-77
2023/03/06 10:13:19;;;;;;;2.22;0.60;;;11.80;55.30;;;;;;5092507;28;20075;-76
2023/03/06 10:15:46;;;;;;;1.73;0.60;;;11.80;55.40;;;;;;5092096;28;20044;-77
2023/03/06 10:18:12;;;;;;;4.10;0.65;;;11.80;55.30;;;;;;5092306;28;20051;-77
2023/03/06 10:21:01;;;;;;;3.45;1.60;;;11.80;54.40;;;;;;5092004;28;20089;-77
2023/03/06 10:23:45;;;;;;;3.78;1.00;;;11.80;54.60;;;;;;5091553;28;20044;-76
2023/03/06 10:26:36;;;;;;;2.05;0.68;;;11.80;55.10;;;;;;5075106;28;20073;-77
2023/03/06 10:29:11;;;;;;;3.90;1.00;;;11.80;55.20;;;;;;5074798;28;20046;-77
2023/03/06 10:31:43;;;;;;;5.78;1.08;;;11.80;54.30;;;;;;5092119;28;20494;-76
2023/03/06 10:34:18;;;;;;;2.78;1.02;;;11.80;54.00;;;;;;5092117;28;20433;-76
2023/03/06 10:36:43;;;;;;;1.60;0.60;;;11.70;53.80;;;;;;5091752;28;20040;-77
2023/03/06 10:39:21;;;;;;;2.53;1.63;;;11.70;53.10;;;;;;5058313;28;20035;-76
2023/03/06 10:41:48;;;;;;;2.42;0.88;;;11.60;52.70;;;;;;5091211;28;20051;-77
2023/03/06 10:44:13;;;;;;;2.95;0.75;;;11.60;52.80;;;;;;5075113;28;20123;-77
2023/03/06 10:46:41;;;;;;;5.65;1.73;;;11.50;52.50;;;;;;5091975;28;20502;-76
2023/03/06 10:49:30;;;;;;;4.03;1.40;;;11.40;51.60;;;;;;5075041;28;20028;-76
2023/03/06 10:52:19;;;;;;;4.45;1.23;;;11.40;51.00;;;;;;5074619;28;20031;-77
2023/03/06 10:54:46;;;;;;;3.13;1.17;;;11.30;51.90;;;;;;5091296;28;20120;-76
2023/03/06 10:57:27;;;;;;;4.07;1.23;;;11.20;51.90;;;;;;5075006;28;20475;-75
2023/03/06 11:00:05;;;;;;;1.75;0.80;;;11.20;51.60;;;;;;5074606;28;20041;-75
2023/03/06 11:02:32;;;;;;;3.55;1.38;;;11.20;51.80;;;;;;5091017;28;20484;-76
2023/03/06 11:05:00;;;;;;;3.72;1.20;;;11.20;52.10;;;;;;5091135;28;20403;-76
2023/03/06 11:07:28;;;;;;;4.75;1.85;;;11.20;52.60;;;;;;5091408;28;20036;-76
2023/03/06 11:09:56;;;;;;;3.75;1.77;;;11.20;52.50;;;;;;5092276;28;20036;-76
2023/03/06 11:12:37;;;;;;;7.80;2.28;;;11.10;52.90;;;;;;5095935;28;20098;-76
2023/03/06 11:15:08;;;;;;;6.72;2.10;;;11.10;53.30;;;;;;5095560;28;20088;-76
2023/03/06 11:17:51;;;;;;;5.97;2.05;;;11.10;53.90;;;;;;5095586;28;20043;-76
2023/03/06 11:20:27;;;;;;;6.13;2.47;;;11.10;53.60;;;;;;5078709;28;20075;-76
2023/03/06 11:22:56;;;;;;;4.60;2.30;;;11.10;53.40;;;;;;5078519;28;20036;-76
2023/03/06 11:25:28;;;;;;;4.95;1.92;;;11.10;53.30;;;;;;5095195;28;20128;-76
2023/03/06 11:28:17;;;;;;;5.15;1.67;;;11.10;53.50;;;;;;5095291;28;20044;-76
2023/03/06 11:30:51;;;;;;;3.90;1.48;;;11.10;53.50;;;;;;5078297;28;20036;-76
2023/03/06 11:33:26;;;;;;;4.00;1.30;;;11.10;51.30;;;;;;5129278;27;20047;-76
2023/03/06 11:36:24;;;;;;;3.38;1.40;;;11.00;50.10;;;;;;5078168;28;20047;-76
2023/03/06 11:38:52;;;;;;;6.80;1.70;;;11.00;49.70;;;;;;5060829;28;20139;-76
2023/03/06 11:41:35;;;;;;;4.18;1.50;;;10.90;51.10;;;;;;5094663;28;20047;-75
2023/03/06 11:44:16;;;;;;;5.77;2.87;;;10.90;50.80;;;;;;5077803;28;20167;-75
2023/03/06 11:46:48;;;;;;;6.35;2.40;;;10.90;51.20;;;;;;5094877;28;20036;-75
2023/03/06 11:50:10;;;;;;;5.00;2.83;;;10.90;51.60;;;;;;5095068;28;20042;-76
2023/03/06 11:52:41;;;;;;;4.82;2.38;;;10.80;52.50;;;;;;5023523;28;20156;-76
2023/03/06 11:55:14;;;;;;;5.93;2.72;;;10.80;52.40;;;;;;5077911;28;20531;-76
2023/03/06 11:57:51;;;;;;;5.00;2.70;;;10.80;51.90;;;;;;5094658;28;20506;-76
2023/03/06 12:00:39;;;;;;;6.07;1.95;;;10.80;51.90;;;;;;5077941;28;20040;-76
2023/03/06 12:03:41;;;;;;;4.03;2.05;;;10.80;51.10;;;;;;5077750;28;20131;-76
2023/03/06 12:06:43;;;;;;;4.07;1.67;;;10.80;51.90;;;;;;5094734;28;20048;-76
2023/03/06 12:09:11;;;;;;;5.50;2.08;;;10.70;51.40;;;;;;5077183;28;20058;-76
2023/03/06 12:11:47;;;;;;;2.13;0.90;;;10.70;52.10;;;;;;5079358;28;20036;-77
2023/03/06 12:14:13;;;;;;;5.05;1.05;;;10.70;51.90;;;;;;5077571;28;20036;-76
2023/03/06 12:16:41;;;;;;;4.53;1.13;;;10.70;52.00;;;;;;5077929;28;20048;-76
2023/03/06 12:19:10;;;;;;;3.40;0.90;;;10.60;51.50;;;;;;5077136;28;20040;-76
2023/03/06 12:22:07;;;;;;;5.65;1.55;;;10.60;51.90;;;;;;5093772;28;20054;-77
2023/03/06 12:24:38;;;;;;;2.25;0.60;;;10.60;51.40;;;;;;5077733;28;20048;-76
2023/03/06 12:27:14;;;;;;;3.25;0.63;;;10.60;50.60;;;;;;5077479;28;20373;-76
2023/03/06 12:30:03;;;;;;;3.75;1.00;;;10.60;50.50;;;;;;5094270;28;20036;-76
2023/03/06 12:32:43;;;;;;;2.25;0.68;;;10.60;50.50;;;;;;5077131;28;20044;-76
2023/03/06 12:35:15;;;;;;;4.35;1.42;;;10.50;50.00;;;;;;5077188;28;20089;-76
2023/03/06 12:37:50;;;;;;;3.13;0.88;;;10.50;49.70;;;;;;5076886;28;20036;-76
2023/03/06 12:40:48;;;;;;;2.65;0.65;;;10.50;50.50;;;;;;5077506;28;20363;-76
2023/03/06 12:43:17;;;;;;;2.97;0.80;;;10.50;48.80;;;;;;5078497;28;20448;-76
2023/03/06 12:45:44;;;;;;;2.95;0.88;;;10.40;48.40;;;;;;5076665;28;20036;-76
2023/03/06 12:48:24;;;;;;;1.58;0.60;;;10.40;49.40;;;;;;5094152;28;20113;-76
2023/03/06 12:50:50;;;;;;;3.20;0.82;;;10.40;48.50;;;;;;5076906;28;20032;-75
2023/03/06 12:53:29;;;;;;;1.95;0.70;;;10.40;48.90;;;;;;5076889;28;20036;-75
2023/03/06 12:55:57;;;;;;;2.63;0.57;;;10.40;49.50;;;;;;5076949;28;20051;-75
2023/03/06 12:58:28;;;;;;;2.72;0.90;;;10.30;49.60;;;;;;5076812;28;20495;-75
2023/03/06 13:01:05;;;;;;;3.58;0.85;;;10.30;50.60;;;;;;5076701;28;20051;-76
2023/03/06 13:04:02;;;;;;;3.42;0.68;;;10.30;50.50;;;;;;5093349;28;20054;-75